Ana Sayfa
METAR-TAF:

METAR-TAF

Havaalanları :

Kişinev Uluslararası Havalimanı

Kişinev, Moldova

Enlem: 46-55-40N, Boylam: 028-55-51E, yükseklik: 122 m

Güncel hava durumu gözlemi

Rapor saat 05:00 UTC de 33 dakika önce yapıldı.
Sakin rüzgar
Sıcaklık -3°C
Nem 68%
Basınç 1023 hPa
Görüş mesafesi 10 km veya daha fazla
1500 m altında bulut yok ve kümülonimbus yok

METAR: LUKK 010500Z 00000KT CAVOK M03/M08 Q1023 R08/D NOSIG

Saat: 08:33 (05:33 UTC)

Tahmin

Rapor saat 23:20 UTC de 6 saat ve 13 dakika önce yapıldı.
Ayın 01'si saat 00 UTC'den ayın 01'si saat 24 UTC'ye kadar geçerli Tahmin
Rüzgar değişken yönden 5 kt
Görüş mesafesi 10 km veya daha fazla
1500 m altında bulut yok ve kümülonimbus yok

TAF: LUKK 312320Z 0100/0124 VRB05KT CAVOK

4.000'den fazla havaalanı için hava durumu gözlemleri ve tahminleri (METAR ve TAF raporları).

Kullanılabilir istasyonlar harita üzerinde sarı ve kırmızı noktalarla gösterilir.

İstasyonun adını görmek için fareyi noktanın üzerinde gezdirin.

Sonrasında hava gözlem ve tahminlerini görmek için tıklayın.

Haritayı değiştirmek için: yaklaştırmak için siyah artı işaretli yeşil düğmeye ve uzaklaştırmak için de eksi işaretli düğmeye hızla tıklayın; bitişik haritalar için yeşil okları kullanın.


METAR-TAF: